Time;durP1;ratioP1;P1;durP2;ratioP2;P2;SDS_P1;SDS_P2;PMS_P1;PMS_P2;Temp;Humidity;BMP_temperature;BMP_pressure;BME280_temperature;BME280_humidity;BME280_pressure;Samples;Min_cycle;Max_cycle;Signal;HPM_P1;HPM_P2
2021/05/15 00:00:22;;;;;;;4.33;3.93;;;12.20;99.90;;;;;;5073605;28;20899;-49
2021/05/15 00:02:48;;;;;;;5.13;3.90;;;11.60;99.90;;;;;;5072905;28;20815;-49
2021/05/15 00:05:14;;;;;;;6.10;4.37;;;12.00;99.90;;;;;;5073700;28;20435;-50
2021/05/15 00:07:41;;;;;;;4.63;3.90;;;11.80;99.90;;;;;;5073683;28;20444;-49
2021/05/15 00:10:09;;;;;;;4.87;3.40;;;11.70;99.90;;;;;;5073486;28;20518;-49
2021/05/15 00:12:35;;;;;;;6.73;4.50;;;11.90;99.90;;;;;;5072902;28;20883;-48
2021/05/15 00:15:03;;;;;;;5.20;4.20;;;12.00;99.90;;;;;;5073379;28;20821;-48
2021/05/15 00:17:29;;;;;;;5.33;4.23;;;12.00;99.90;;;;;;5073167;28;20474;-48
2021/05/15 00:19:55;;;;;;;4.80;4.40;;;12.00;99.90;;;;;;5054854;28;20436;-49
2021/05/15 00:22:22;;;;;;;4.73;4.33;;;11.90;99.90;;;;;;5072939;28;20459;-49
2021/05/15 00:24:48;;;;;;;4.77;4.10;;;12.10;99.90;;;;;;5073280;28;20423;-49
2021/05/15 00:27:15;;;;;;;4.57;3.80;;;11.90;99.90;;;;;;5073133;28;20437;-48
2021/05/15 00:29:41;;;;;;;7.10;4.50;;;12.30;99.90;;;;;;5073282;28;20989;-48
2021/05/15 00:32:08;;;;;;;5.77;4.33;;;11.60;99.90;;;;;;5072842;28;20527;-48
2021/05/15 00:34:34;;;;;;;5.47;4.10;;;11.50;99.90;;;;;;5072844;28;20459;-49
2021/05/15 00:37:00;;;;;;;5.00;4.37;;;12.10;99.90;;;;;;5072961;28;20437;-49
2021/05/15 00:39:26;;;;;;;8.53;4.77;;;11.90;99.90;;;;;;5072797;28;20430;-49
2021/05/15 00:41:53;;;;;;;5.13;4.00;;;11.90;99.90;;;;;;5054884;28;20557;-49
2021/05/15 00:44:30;;;;;;;4.47;3.73;;;11.40;99.90;;;;;;5072781;28;20914;-49
2021/05/15 00:46:57;;;;;;;5.47;3.53;;;11.80;99.90;;;;;;5072798;28;20472;-49
2021/05/15 00:49:23;;;;;;;4.83;4.40;;;12.00;99.90;;;;;;5073077;28;20529;-48
2021/05/15 00:51:52;;;;;;;4.33;3.93;;;12.00;99.90;;;;;;5073011;28;20456;-48
2021/05/15 00:54:18;;;;;;;4.60;4.20;;;11.90;99.90;;;;;;5072778;28;20769;-48
2021/05/15 00:56:46;;;;;;;5.03;4.53;;;11.70;99.90;;;;;;5054760;28;20447;-48
2021/05/15 00:59:12;;;;;;;4.57;4.17;;;11.80;99.90;;;;;;5073366;28;20452;-49
2021/05/15 01:01:39;;;;;;;8.83;4.30;;;11.50;99.90;;;;;;5055042;28;20467;-49
2021/05/15 01:04:06;;;;;;;8.27;4.60;;;11.60;99.90;;;;;;5071698;28;20939;-48
2021/05/15 01:06:32;;;;;;;7.23;4.40;;;11.50;99.90;;;;;;5072009;28;20947;-48
2021/05/15 01:08:59;;;;;;;5.20;4.70;;;11.50;99.90;;;;;;5071912;28;20400;-48
2021/05/15 01:11:25;;;;;;;6.73;5.07;;;11.60;99.90;;;;;;5072045;28;20471;-48
2021/05/15 01:13:52;;;;;;;6.77;4.90;;;11.20;99.90;;;;;;5071609;28;20898;-49
2021/05/15 01:16:18;;;;;;;6.63;4.80;;;11.40;99.90;;;;;;5071988;28;20441;-48
2021/05/15 01:18:45;;;;;;;5.40;4.40;;;11.40;99.90;;;;;;5071883;28;20894;-49
2021/05/15 01:21:13;;;;;;;7.13;5.47;;;11.40;99.90;;;;;;5071919;28;20600;-49
2021/05/15 01:23:39;;;;;;;5.23;4.73;;;11.30;99.90;;;;;;5071588;28;20838;-48
2021/05/15 01:26:13;;;;;;;5.90;5.30;;;11.30;99.90;;;;;;5072643;28;20845;-48
2021/05/15 01:28:40;;;;;;;6.20;5.60;;;11.00;99.90;;;;;;5071804;28;20869;-48
2021/05/15 01:31:07;;;;;;;8.77;6.27;;;11.10;99.90;;;;;;5073979;28;20434;-48
2021/05/15 01:33:33;;;;;;;8.33;6.27;;;11.10;99.90;;;;;;5075064;28;20538;-48
2021/05/15 01:35:59;;;;;;;7.73;5.93;;;11.30;99.90;;;;;;5075453;28;20955;-47
2021/05/15 01:38:26;;;;;;;8.23;6.50;;;11.20;99.90;;;;;;5075384;28;20787;-48
2021/05/15 01:40:53;;;;;;;7.00;6.30;;;11.00;99.90;;;;;;5075820;28;20870;-48
2021/05/15 01:43:19;;;;;;;6.67;5.97;;;11.00;99.90;;;;;;5075305;28;20457;-48
2021/05/15 01:45:46;;;;;;;6.37;5.77;;;10.80;99.90;;;;;;5057163;28;20524;-49
2021/05/15 01:48:16;;;;;;;6.43;5.80;;;10.80;99.90;;;;;;5057168;28;20469;-49
2021/05/15 01:50:44;;;;;;;9.80;5.60;;;10.90;99.90;;;;;;5075369;28;20433;-49
2021/05/15 01:53:10;;;;;;;6.90;6.20;;;10.80;99.90;;;;;;5075163;28;20478;-49
2021/05/15 01:55:37;;;;;;;7.07;6.37;;;10.70;99.90;;;;;;5075396;28;20427;-49
2021/05/15 01:58:03;;;;;;;8.10;7.00;;;11.20;99.90;;;;;;5075198;28;20894;-49
2021/05/15 02:00:30;;;;;;;6.60;6.00;;;10.80;99.90;;;;;;5075169;28;20440;-49
2021/05/15 02:02:56;;;;;;;7.63;6.07;;;10.80;99.90;;;;;;5074806;28;20461;-49
2021/05/15 02:05:22;;;;;;;7.60;6.83;;;10.80;99.90;;;;;;5075099;28;20426;-49
2021/05/15 02:07:48;;;;;;;8.40;7.10;;;10.90;99.90;;;;;;5075144;28;20802;-49
2021/05/15 02:10:15;;;;;;;6.53;5.73;;;10.60;99.90;;;;;;5075152;28;20468;-49
2021/05/15 02:12:42;;;;;;;8.40;6.60;;;10.60;99.90;;;;;;5074790;28;20523;-48
2021/05/15 02:15:09;;;;;;;8.13;6.83;;;10.90;99.90;;;;;;5056904;28;20799;-48
2021/05/15 02:17:36;;;;;;;6.80;5.93;;;10.80;99.90;;;;;;5074854;28;20476;-49
2021/05/15 02:20:02;;;;;;;11.20;6.60;;;10.90;99.90;;;;;;5075386;28;20430;-48
2021/05/15 02:22:29;;;;;;;7.40;6.10;;;10.60;99.90;;;;;;5056407;28;20454;-49
2021/05/15 02:24:55;;;;;;;7.17;6.37;;;10.60;99.90;;;;;;5056740;28;20831;-49
2021/05/15 02:27:21;;;;;;;9.10;7.10;;;10.40;99.90;;;;;;5073857;28;20460;-49
2021/05/15 02:29:48;;;;;;;8.93;7.07;;;10.70;99.90;;;;;;5073496;28;20434;-48
2021/05/15 02:32:14;;;;;;;11.77;6.90;;;10.90;99.90;;;;;;5074307;28;20485;-49
2021/05/15 02:34:41;;;;;;;8.20;6.53;;;10.60;99.90;;;;;;5075171;28;20778;-49
2021/05/15 02:37:07;;;;;;;8.00;7.20;;;10.40;99.90;;;;;;5074887;28;20437;-49
2021/05/15 02:39:33;;;;;;;8.00;7.03;;;10.70;99.90;;;;;;5074700;28;20995;-49
2021/05/15 02:41:59;;;;;;;9.13;7.77;;;10.60;99.90;;;;;;5073499;28;20453;-49
2021/05/15 02:44:25;;;;;;;10.90;7.27;;;10.60;99.90;;;;;;5074498;28;20749;-49
2021/05/15 02:46:52;;;;;;;6.90;6.20;;;10.60;99.90;;;;;;5074362;28;20911;-49
2021/05/15 02:49:19;;;;;;;7.93;7.03;;;10.50;99.90;;;;;;5074063;28;21014;-49
2021/05/15 02:51:45;;;;;;;9.07;6.80;;;10.40;99.90;;;;;;5074057;28;20478;-49
2021/05/15 02:54:11;;;;;;;8.37;7.40;;;10.80;99.90;;;;;;5073932;28;21150;-49
2021/05/15 02:56:38;;;;;;;8.70;7.33;;;10.60;99.90;;;;;;5074219;28;20438;-49
2021/05/15 02:59:04;;;;;;;12.07;7.90;;;10.50;99.90;;;;;;5074308;28;20438;-48
2021/05/15 03:01:30;;;;;;;8.20;7.03;;;10.80;99.90;;;;;;5074066;28;20454;-49
2021/05/15 03:03:57;;;;;;;12.63;7.53;;;10.40;99.90;;;;;;5073542;28;20555;-48
2021/05/15 03:06:23;;;;;;;9.30;7.27;;;10.40;99.90;;;;;;5074070;28;20438;-49
2021/05/15 03:08:50;;;;;;;9.97;8.60;;;10.60;99.90;;;;;;5055935;28;20457;-49
2021/05/15 03:11:16;;;;;;;10.30;8.27;;;10.40;99.90;;;;;;5074273;28;20430;-49
2021/05/15 03:13:42;;;;;;;8.43;7.10;;;10.60;99.90;;;;;;5073883;28;21021;-49
2021/05/15 03:16:08;;;;;;;8.47;7.43;;;10.20;99.90;;;;;;5073964;28;20422;-49
2021/05/15 03:18:35;;;;;;;8.50;7.33;;;10.70;99.90;;;;;;5073695;28;20452;-49
2021/05/15 03:21:02;;;;;;;9.33;7.93;;;10.50;99.90;;;;;;5073634;28;20476;-49
2021/05/15 03:23:29;;;;;;;10.60;7.60;;;10.40;99.90;;;;;;5073194;28;20434;-49
2021/05/15 03:25:55;;;;;;;9.23;8.23;;;10.20;99.90;;;;;;5073522;28;20876;-49
2021/05/15 03:28:22;;;;;;;7.90;7.10;;;10.30;99.90;;;;;;5073379;28;20468;-49
2021/05/15 03:30:50;;;;;;;8.80;7.80;;;10.20;99.90;;;;;;5073235;28;20468;-50
2021/05/15 03:33:16;;;;;;;7.80;7.00;;;9.90;99.90;;;;;;5072627;28;20491;-49
2021/05/15 03:35:43;;;;;;;10.87;8.03;;;10.40;99.90;;;;;;5073536;28;20521;-49
2021/05/15 03:38:10;;;;;;;8.57;7.13;;;10.50;99.90;;;;;;5073389;28;20426;-48
2021/05/15 03:40:36;;;;;;;9.57;7.73;;;10.60;99.90;;;;;;5073090;28;20434;-49
2021/05/15 03:43:03;;;;;;;9.30;8.00;;;10.50;99.90;;;;;;5072685;28;20546;-49
2021/05/15 03:45:30;;;;;;;9.53;8.63;;;10.40;99.90;;;;;;5073068;28;20465;-49
2021/05/15 03:47:56;;;;;;;8.60;6.93;;;10.30;99.90;;;;;;5073118;28;20510;-49
2021/05/15 03:50:22;;;;;;;6.97;6.17;;;10.30;99.90;;;;;;5072886;28;20434;-49
2021/05/15 03:52:49;;;;;;;7.43;6.27;;;10.50;99.90;;;;;;5072257;28;20580;-48
2021/05/15 03:55:16;;;;;;;10.37;7.40;;;10.50;99.90;;;;;;5072784;28;20452;-48
2021/05/15 03:57:42;;;;;;;9.43;7.50;;;10.50;99.90;;;;;;5073044;28;20545;-49
2021/05/15 04:00:10;;;;;;;11.53;7.80;;;10.80;99.90;;;;;;5073312;28;20429;-49
2021/05/15 04:02:38;;;;;;;10.90;7.57;;;10.60;99.90;;;;;;5072366;28;20949;-49
2021/05/15 04:05:05;;;;;;;8.07;7.27;;;10.60;99.90;;;;;;5072320;28;20438;-48
2021/05/15 04:07:31;;;;;;;7.87;7.00;;;10.90;99.90;;;;;;5072389;28;20654;-49
2021/05/15 04:09:57;;;;;;;10.47;7.60;;;11.00;99.90;;;;;;5072378;28;20452;-48
2021/05/15 04:12:30;;;;;;;6.67;6.00;;;10.90;99.90;;;;;;5071902;28;20488;-48
2021/05/15 04:15:02;;;;;;;9.53;6.57;;;11.00;99.90;;;;;;5072668;28;20430;-49
2021/05/15 04:17:29;;;;;;;14.67;7.93;;;11.10;99.90;;;;;;5073026;28;20482;-49
2021/05/15 04:19:56;;;;;;;7.70;6.90;;;11.20;99.90;;;;;;5072965;28;20433;-48
2021/05/15 04:22:23;;;;;;;10.00;7.40;;;11.10;99.90;;;;;;5072334;28;20450;-48
2021/05/15 04:24:49;;;;;;;8.97;6.73;;;11.30;99.90;;;;;;5072554;28;20493;-49
2021/05/15 04:27:16;;;;;;;7.10;6.40;;;11.60;99.90;;;;;;5072598;28;20434;-49
2021/05/15 04:29:44;;;;;;;8.77;6.67;;;11.50;99.90;;;;;;5072279;28;20434;-48
2021/05/15 04:32:10;;;;;;;5.90;5.37;;;11.50;99.90;;;;;;5072288;28;21005;-49
2021/05/15 04:34:37;;;;;;;7.17;6.30;;;11.70;99.90;;;;;;5072740;28;20431;-49
2021/05/15 04:37:04;;;;;;;6.87;5.50;;;11.50;99.90;;;;;;5073921;28;21029;-49
2021/05/15 04:39:33;;;;;;;6.40;5.80;;;12.10;99.90;;;;;;5074263;28;20457;-48
2021/05/15 04:42:00;;;;;;;7.30;6.10;;;12.10;99.90;;;;;;5074631;28;20451;-49
2021/05/15 04:44:26;;;;;;;7.43;6.07;;;12.30;99.90;;;;;;5072927;28;20945;-49
2021/05/15 04:46:53;;;;;;;6.60;6.00;;;12.40;99.90;;;;;;5074386;28;20510;-49
2021/05/15 04:49:19;;;;;;;7.27;6.57;;;12.60;99.90;;;;;;5073899;28;20426;-49
2021/05/15 04:51:46;;;;;;;6.20;5.60;;;12.20;99.90;;;;;;5072462;28;20797;-49
2021/05/15 04:54:12;;;;;;;8.37;6.07;;;12.00;99.90;;;;;;5072116;28;20518;-49
2021/05/15 04:56:38;;;;;;;6.80;5.67;;;12.40;99.90;;;;;;5072687;28;20906;-49
2021/05/15 04:59:05;;;;;;;8.83;5.10;;;12.40;99.90;;;;;;5054816;28;20473;-49
2021/05/15 05:01:32;;;;;;;5.30;4.53;;;12.60;99.90;;;;;;5072584;28;20527;-49
2021/05/15 05:04:01;;;;;;;8.40;5.20;;;12.60;99.90;;;;;;5071735;28;20419;-49
2021/05/15 05:06:27;;;;;;;6.50;5.47;;;12.60;99.90;;;;;;5075416;28;20461;-49
2021/05/15 05:08:53;;;;;;;6.30;4.80;;;12.80;99.90;;;;;;5076429;28;20581;-48
2021/05/15 05:11:19;;;;;;;6.00;5.40;;;12.90;99.90;;;;;;5076392;28;20485;-49
2021/05/15 05:13:45;;;;;;;7.13;5.47;;;12.60;99.90;;;;;;5075396;28;20496;-49
2021/05/15 05:16:12;;;;;;;5.70;5.20;;;12.90;99.90;;;;;;5076974;28;20811;-49
2021/05/15 05:18:38;;;;;;;6.53;5.40;;;12.80;99.90;;;;;;5076114;28;20494;-49
2021/05/15 05:21:05;;;;;;;5.30;4.80;;;12.80;99.90;;;;;;5075946;28;20502;-49
2021/05/15 05:23:31;;;;;;;5.17;4.67;;;12.90;99.90;;;;;;5075444;28;20926;-50
2021/05/15 05:25:58;;;;;;;5.80;5.20;;;12.90;99.90;;;;;;5075714;28;20923;-50
2021/05/15 05:28:27;;;;;;;6.20;5.13;;;13.00;99.90;;;;;;5075454;28;20432;-49
2021/05/15 05:30:53;;;;;;;5.20;4.70;;;13.00;99.90;;;;;;5075762;28;20911;-48
2021/05/15 05:33:19;;;;;;;4.93;4.53;;;13.00;99.90;;;;;;5079387;22;20505;-46
2021/05/15 05:35:46;;;;;;;6.13;5.53;;;12.70;99.90;;;;;;5054819;28;20534;-46
2021/05/15 05:38:13;;;;;;;5.90;4.83;;;13.20;99.90;;;;;;5054963;28;20427;-46
2021/05/15 05:40:39;;;;;;;5.67;5.17;;;13.30;99.90;;;;;;5054811;28;20447;-46
2021/05/15 05:43:06;;;;;;;6.40;5.53;;;13.10;99.90;;;;;;5053187;28;20451;-46
2021/05/15 05:45:32;;;;;;;6.90;6.17;;;13.50;99.90;;;;;;5054554;28;20752;-46
2021/05/15 05:47:58;;;;;;;6.70;5.73;;;13.90;99.90;;;;;;5054522;28;20445;-46
2021/05/15 05:50:24;;;;;;;9.93;6.40;;;13.60;99.90;;;;;;5054530;28;20476;-46
2021/05/15 05:52:50;;;;;;;9.70;7.07;;;13.60;99.90;;;;;;5054016;28;20521;-46
2021/05/15 05:55:18;;;;;;;8.53;7.70;;;13.10;99.90;;;;;;5054557;28;20498;-46
2021/05/15 05:57:44;;;;;;;9.50;7.60;;;13.50;99.90;;;;;;5054300;28;20451;-46
2021/05/15 06:00:11;;;;;;;8.23;7.43;;;14.00;99.90;;;;;;5054247;28;20430;-46
2021/05/15 06:02:39;;;;;;;8.00;7.30;;;14.00;99.90;;;;;;5053884;28;20819;-45
2021/05/15 06:05:08;;;;;;;8.27;7.40;;;13.80;99.90;;;;;;5054216;28;20859;-45
2021/05/15 06:07:34;;;;;;;9.73;8.73;;;13.70;99.90;;;;;;5036461;28;20445;-46
2021/05/15 06:10:01;;;;;;;9.53;8.40;;;14.10;99.90;;;;;;5054109;28;20441;-46
2021/05/15 06:12:28;;;;;;;7.97;7.20;;;14.30;99.90;;;;;;5053724;28;20500;-45
2021/05/15 06:14:55;;;;;;;10.63;8.23;;;14.40;99.90;;;;;;5054124;28;20468;-47
2021/05/15 06:17:21;;;;;;;9.13;6.80;;;13.90;99.90;;;;;;5053929;28;20814;-46
2021/05/15 06:19:50;;;;;;;9.87;8.87;;;14.30;99.90;;;;;;5054242;28;20479;-46
2021/05/15 06:22:17;;;;;;;8.37;7.57;;;14.20;99.90;;;;;;5053410;28;20467;-46
2021/05/15 06:24:43;;;;;;;10.00;9.17;;;14.60;99.90;;;;;;5053557;28;20433;-45
2021/05/15 06:27:09;;;;;;;9.60;8.60;;;14.20;99.90;;;;;;5053827;28;20437;-46
2021/05/15 06:29:36;;;;;;;10.07;8.53;;;14.60;99.90;;;;;;5053729;28;20436;-46
2021/05/15 06:32:03;;;;;;;11.03;10.00;;;14.90;99.90;;;;;;5053731;28;20515;-46
2021/05/15 06:34:30;;;;;;;10.53;9.53;;;14.40;99.90;;;;;;5053095;28;20444;-46
2021/05/15 06:36:56;;;;;;;10.30;9.27;;;14.40;99.90;;;;;;5052458;28;20456;-46
2021/05/15 06:39:23;;;;;;;11.73;10.63;;;14.50;99.90;;;;;;5053811;28;20436;-46
2021/05/15 06:41:49;;;;;;;11.87;10.73;;;14.60;99.90;;;;;;5053505;28;20550;-46
2021/05/15 06:44:15;;;;;;;12.30;10.37;;;14.60;99.90;;;;;;5053731;28;20423;-46
2021/05/15 06:46:42;;;;;;;12.03;9.80;;;14.60;99.90;;;;;;5053918;28;20426;-46
2021/05/15 06:49:09;;;;;;;10.20;9.20;;;14.90;99.90;;;;;;5054344;28;20938;-46
2021/05/15 06:51:35;;;;;;;9.50;8.70;;;14.80;99.90;;;;;;5053836;28;20785;-45
2021/05/15 06:54:01;;;;;;;11.93;10.73;;;14.60;99.90;;;;;;5054437;28;20477;-46
2021/05/15 06:56:27;;;;;;;9.73;8.73;;;14.80;99.90;;;;;;5053649;28;20523;-46
2021/05/15 06:58:54;;;;;;;10.23;9.17;;;14.80;99.90;;;;;;5053319;28;20922;-45
2021/05/15 07:01:20;;;;;;;9.77;8.77;;;15.20;99.90;;;;;;5053180;28;20441;-47
2021/05/15 07:03:47;;;;;;;8.83;7.93;;;15.50;99.90;;;;;;5052899;28;20437;-46
2021/05/15 07:06:13;;;;;;;11.37;9.60;;;15.00;99.90;;;;;;5052806;28;20438;-47
2021/05/15 07:08:39;;;;;;;9.60;8.60;;;15.50;99.90;;;;;;5052884;28;20900;-46
2021/05/15 07:11:06;;;;;;;9.60;7.60;;;15.10;99.90;;;;;;5052976;28;20502;-47
2021/05/15 07:13:32;;;;;;;8.30;7.50;;;15.00;99.90;;;;;;5052128;28;20478;-47
2021/05/15 07:15:58;;;;;;;10.87;7.70;;;15.20;99.90;;;;;;5052526;28;20866;-46
2021/05/15 07:18:24;;;;;;;8.33;7.50;;;14.80;99.90;;;;;;5034771;28;20450;-46
2021/05/15 07:20:51;;;;;;;9.90;8.47;;;15.40;99.90;;;;;;5034647;28;20922;-47
2021/05/15 07:23:18;;;;;;;9.10;7.63;;;15.30;99.90;;;;;;5034283;28;20462;-46
2021/05/15 07:25:44;;;;;;;8.83;7.57;;;15.20;99.90;;;;;;5052533;28;20434;-46
2021/05/15 07:28:10;;;;;;;9.90;8.07;;;15.50;99.90;;;;;;5052206;28;20926;-46
2021/05/15 07:30:36;;;;;;;9.67;8.80;;;15.20;99.90;;;;;;5051337;28;20458;-47
2021/05/15 07:33:03;;;;;;;9.77;8.77;;;15.40;99.90;;;;;;5052711;28;20512;-47
2021/05/15 07:35:29;;;;;;;9.67;8.67;;;15.50;99.90;;;;;;5052470;28;20453;-46
2021/05/15 07:37:56;;;;;;;8.83;7.90;;;15.60;99.90;;;;;;5052238;28;20426;-47
2021/05/15 07:40:23;;;;;;;8.37;7.57;;;15.70;99.90;;;;;;5052343;28;20435;-47
2021/05/15 07:42:49;;;;;;;9.60;8.40;;;15.70;99.90;;;;;;5050641;28;20477;-46
2021/05/15 07:45:16;;;;;;;9.80;8.80;;;15.70;99.90;;;;;;5052134;28;20480;-46
2021/05/15 07:47:43;;;;;;;8.50;7.80;;;15.80;99.90;;;;;;5052476;28;20435;-46
2021/05/15 07:50:10;;;;;;;8.87;7.70;;;15.80;99.90;;;;;;5052286;28;20430;-47
2021/05/15 07:52:36;;;;;;;9.10;8.23;;;15.80;99.90;;;;;;5051645;28;20839;-46
2021/05/15 07:55:05;;;;;;;9.73;8.73;;;15.90;99.90;;;;;;5051850;28;20441;-46
2021/05/15 07:57:31;;;;;;;10.93;9.87;;;15.80;99.90;;;;;;5033785;28;20925;-47
2021/05/15 07:59:57;;;;;;;10.50;9.60;;;15.70;99.90;;;;;;5052119;28;20445;-47
2021/05/15 08:02:27;;;;;;;13.23;9.90;;;15.90;99.90;;;;;;5052198;28;20457;-46
2021/05/15 08:04:54;;;;;;;11.10;9.50;;;16.00;99.90;;;;;;5052807;28;20437;-46
2021/05/15 08:07:20;;;;;;;13.90;10.50;;;16.40;99.90;;;;;;5052311;28;20597;-47
2021/05/15 08:09:47;;;;;;;10.90;9.80;;;16.10;99.90;;;;;;5051912;28;20489;-47
2021/05/15 08:12:14;;;;;;;10.73;8.93;;;16.00;99.90;;;;;;5051599;28;20495;-47
2021/05/15 08:14:40;;;;;;;10.80;9.80;;;16.40;99.90;;;;;;5051966;28;20431;-47
2021/05/15 08:17:06;;;;;;;11.97;10.70;;;16.40;99.90;;;;;;5033977;28;20458;-47
2021/05/15 08:19:33;;;;;;;11.10;10.10;;;15.80;99.90;;;;;;5051521;28;20427;-47
2021/05/15 08:21:59;;;;;;;10.37;9.40;;;16.60;99.90;;;;;;5051232;28;20447;-47
2021/05/15 08:24:25;;;;;;;10.23;9.17;;;16.10;99.90;;;;;;5049755;28;21021;-46
2021/05/15 08:26:52;;;;;;;9.57;8.67;;;16.30;99.90;;;;;;5033824;28;20963;-46
2021/05/15 08:29:21;;;;;;;8.73;7.93;;;15.90;99.90;;;;;;5051227;28;20433;-47
2021/05/15 08:31:47;;;;;;;8.13;7.33;;;16.50;99.90;;;;;;5051480;28;20474;-47
2021/05/15 08:34:15;;;;;;;9.10;8.30;;;16.60;99.90;;;;;;5033437;28;20474;-47
2021/05/15 08:36:41;;;;;;;9.13;8.23;;;16.10;99.90;;;;;;5051322;28;20437;-46
2021/05/15 08:39:07;;;;;;;8.93;8.07;;;16.40;99.90;;;;;;5051249;28;20540;-47
2021/05/15 08:41:34;;;;;;;8.93;8.00;;;16.50;99.90;;;;;;5051352;28;20446;-47
2021/05/15 08:44:02;;;;;;;9.93;8.60;;;16.30;99.90;;;;;;5051818;28;20782;-47
2021/05/15 08:46:30;;;;;;;10.60;8.70;;;16.50;99.90;;;;;;5051779;28;20535;-47
2021/05/15 08:48:59;;;;;;;9.00;8.30;;;16.60;99.90;;;;;;5052069;28;20437;-47
2021/05/15 08:51:25;;;;;;;10.47;9.37;;;16.20;99.90;;;;;;5051702;28;20434;-46
2021/05/15 08:53:52;;;;;;;10.47;9.53;;;16.70;99.90;;;;;;5051042;28;20486;-46
2021/05/15 08:56:18;;;;;;;8.97;8.10;;;16.80;99.90;;;;;;5051595;28;20838;-45
2021/05/15 08:58:45;;;;;;;10.70;8.50;;;16.80;99.90;;;;;;5051114;28;20434;-46
2021/05/15 09:01:13;;;;;;;8.87;7.97;;;16.90;99.90;;;;;;5051882;28;20483;-47
2021/05/15 09:03:41;;;;;;;8.63;7.60;;;17.00;99.90;;;;;;5050941;28;20506;-45
2021/05/15 09:06:09;;;;;;;9.40;8.53;;;17.30;99.90;;;;;;5050989;28;20997;-46
2021/05/15 09:08:37;;;;;;;9.93;7.87;;;16.90;99.90;;;;;;5051203;28;20805;-46
2021/05/15 09:11:03;;;;;;;10.07;9.17;;;17.10;99.90;;;;;;5050838;28;20431;-46
2021/05/15 09:13:30;;;;;;;9.70;8.90;;;17.30;99.90;;;;;;5050428;28;20984;-46
2021/05/15 09:15:59;;;;;;;8.83;7.93;;;17.30;99.90;;;;;;5048734;28;20774;-45
2021/05/15 09:18:27;;;;;;;10.73;8.70;;;17.40;99.90;;;;;;5050536;28;20508;-46
2021/05/15 09:20:56;;;;;;;8.53;7.50;;;17.40;99.90;;;;;;5050314;28;20439;-47
2021/05/15 09:23:26;;;;;;;8.47;7.63;;;17.40;99.90;;;;;;5049955;28;20522;-46
2021/05/15 09:25:58;;;;;;;9.00;8.03;;;17.40;99.90;;;;;;5050774;28;20443;-46
2021/05/15 09:28:32;;;;;;;10.40;7.60;;;17.50;99.90;;;;;;5051118;28;20505;-47
2021/05/15 09:31:09;;;;;;;8.43;7.70;;;17.90;99.90;;;;;;5050193;28;20784;-46
2021/05/15 09:33:36;;;;;;;9.43;8.63;;;18.10;99.70;;;;;;5049731;28;20508;-46
2021/05/15 09:36:15;;;;;;;9.37;8.50;;;17.80;99.10;;;;;;5050289;28;20547;-47
2021/05/15 09:38:42;;;;;;;8.80;7.97;;;18.20;98.60;;;;;;5050459;28;20429;-47
2021/05/15 09:41:08;;;;;;;9.03;7.70;;;18.30;98.50;;;;;;5050253;28;20432;-47
2021/05/15 09:43:34;;;;;;;12.33;8.20;;;18.20;97.90;;;;;;5049814;28;20456;-47
2021/05/15 09:46:01;;;;;;;8.00;6.80;;;18.70;97.70;;;;;;5050172;28;20438;-47
2021/05/15 09:48:36;;;;;;;7.27;6.67;;;18.60;97.20;;;;;;5050438;28;20445;-47
2021/05/15 09:51:13;;;;;;;7.57;6.80;;;18.80;96.60;;;;;;5050439;28;20479;-47
2021/05/15 09:53:40;;;;;;;8.50;6.40;;;18.90;96.50;;;;;;5053387;28;20493;-47
2021/05/15 09:56:06;;;;;;;8.10;6.87;;;19.10;96.10;;;;;;5053559;28;20799;-47
2021/05/15 09:58:32;;;;;;;6.90;6.20;;;19.00;95.70;;;;;;5053877;28;20441;-48
2021/05/15 10:00:59;;;;;;;6.60;5.77;;;19.60;95.90;;;;;;5053528;28;20435;-47
2021/05/15 10:03:26;;;;;;;6.33;5.57;;;19.30;95.30;;;;;;5053773;28;20449;-47
2021/05/15 10:06:00;;;;;;;4.27;3.87;;;19.40;95.20;;;;;;5053308;28;20501;-47
2021/05/15 10:08:28;;;;;;;5.77;5.20;;;19.70;94.40;;;;;;5053505;28;20806;-47
2021/05/15 10:10:54;;;;;;;5.33;4.57;;;19.80;93.70;;;;;;5053083;28;20443;-47
2021/05/15 10:13:22;;;;;;;5.67;5.20;;;19.70;93.40;;;;;;5034371;28;20476;-47
2021/05/15 10:15:49;;;;;;;4.43;3.97;;;20.00;93.10;;;;;;5034932;28;20970;-47
2021/05/15 10:18:16;;;;;;;3.70;3.40;;;19.90;92.30;;;;;;5052996;28;20448;-47
2021/05/15 10:20:43;;;;;;;6.37;3.70;;;20.20;91.40;;;;;;5053128;28;20775;-47
2021/05/15 10:23:19;;;;;;;3.70;2.90;;;20.10;90.80;;;;;;5052936;28;20449;-48
2021/05/15 10:25:47;;;;;;;3.60;3.30;;;20.00;88.80;;;;;;5032710;28;20439;-47
2021/05/15 10:28:24;;;;;;;6.93;3.57;;;20.10;89.90;;;;;;5032945;28;20492;-47
2021/05/15 10:31:01;;;;;;;4.20;3.80;;;20.50;90.00;;;;;;5050962;28;20825;-48
2021/05/15 10:33:30;;;;;;;3.83;3.30;;;20.10;90.00;;;;;;5052283;28;20938;-48
2021/05/15 10:35:56;;;;;;;3.90;3.50;;;20.20;90.00;;;;;;5053159;28;20492;-47
2021/05/15 10:38:31;;;;;;;3.13;2.50;;;20.60;90.20;;;;;;5053339;28;20452;-47
2021/05/15 10:41:12;;;;;;;2.60;2.33;;;20.40;85.80;;;;;;5053208;28;20433;-47
2021/05/15 10:43:41;;;;;;;3.50;2.70;;;20.80;85.80;;;;;;5052537;28;20460;-47
2021/05/15 10:46:33;;;;;;;2.50;2.30;;;20.70;85.40;;;;;;5052493;28;20463;-47
2021/05/15 10:49:02;;;;;;;7.90;6.40;;;20.80;81.30;;;;;;5028910;28;20448;-47
2021/05/15 10:51:44;;;;;;;2.80;2.60;;;20.70;81.00;;;;;;5052160;28;20540;-48
2021/05/15 10:54:12;;;;;;;2.90;2.40;;;20.80;79.50;;;;;;5051640;28;20976;-47
2021/05/15 10:56:41;;;;;;;3.37;2.03;;;20.60;79.60;;;;;;5052556;28;20441;-48
2021/05/15 10:59:10;;;;;;;2.53;2.10;;;21.20;80.20;;;;;;5052108;28;20523;-48
2021/05/15 11:01:44;;;;;;;3.30;1.80;;;21.00;78.70;;;;;;5051932;28;20470;-46
2021/05/15 11:04:22;;;;;;;3.03;1.70;;;20.90;76.80;;;;;;5050724;28;20495;-46
2021/05/15 11:07:03;;;;;;;3.60;1.67;;;21.00;76.80;;;;;;5051698;28;20445;-48
2021/05/15 11:09:32;;;;;;;2.77;1.73;;;20.70;74.70;;;;;;5051304;28;20437;-47
2021/05/15 11:12:08;;;;;;;6.50;3.00;;;21.00;75.50;;;;;;5033159;28;20481;-47
2021/05/15 11:14:36;;;;;;;2.70;2.23;;;20.80;75.70;;;;;;5033547;28;20905;-49
2021/05/15 11:17:24;;;;;;;2.27;1.60;;;21.00;75.40;;;;;;5051473;28;20523;-47
2021/05/15 11:19:53;;;;;;;4.43;2.30;;;21.00;73.60;;;;;;5051430;28;20919;-47
2021/05/15 11:22:21;;;;;;;2.87;1.50;;;20.70;73.90;;;;;;5031054;28;20793;-47
2021/05/15 11:24:53;;;;;;;2.13;1.50;;;20.70;74.20;;;;;;5043968;28;20439;-47
2021/05/15 11:27:21;;;;;;;3.87;2.03;;;20.70;74.50;;;;;;5051371;28;20438;-48
2021/05/15 11:29:50;;;;;;;6.03;2.13;;;20.70;75.10;;;;;;5051272;28;20424;-47
2021/05/15 11:32:18;;;;;;;3.37;1.60;;;20.60;74.40;;;;;;5064820;22;20511;-47
2021/05/15 11:34:44;;;;;;;3.37;1.60;;;20.70;74.00;;;;;;5050435;28;20599;-47
2021/05/15 11:37:13;;;;;;;2.90;2.10;;;20.50;74.10;;;;;;5051932;28;20442;-47
2021/05/15 11:39:40;;;;;;;4.50;1.90;;;20.70;74.30;;;;;;5033476;28;20512;-47
2021/05/15 11:42:13;;;;;;;2.73;1.20;;;21.00;73.30;;;;;;5033730;28;20472;-47
2021/05/15 11:44:41;;;;;;;6.53;2.00;;;21.30;72.70;;;;;;5051017;28;20575;-49
2021/05/15 11:47:11;;;;;;;2.07;1.10;;;21.80;72.90;;;;;;5034693;28;20450;-47
2021/05/15 11:49:38;;;;;;;2.27;1.27;;;21.50;71.90;;;;;;5051492;28;20437;-47
2021/05/15 11:52:07;;;;;;;3.23;1.20;;;21.20;70.70;;;;;;5051725;28;20449;-48
2021/05/15 11:54:34;;;;;;;2.17;1.33;;;21.50;69.90;;;;;;5050865;28;20473;-48
2021/05/15 11:57:01;;;;;;;2.90;1.03;;;21.50;69.80;;;;;;5051242;28;20802;-46
2021/05/15 11:59:29;;;;;;;2.07;1.00;;;21.20;70.40;;;;;;5051033;28;20899;-47
2021/05/15 12:01:57;;;;;;;1.90;1.00;;;21.20;69.90;;;;;;5051780;28;20528;-48
2021/05/15 12:04:28;;;;;;;2.27;1.17;;;20.80;66.20;;;;;;5051213;28;20439;-48
2021/05/15 12:06:58;;;;;;;5.03;0.90;;;20.40;65.40;;;;;;5050479;28;20819;-47
2021/05/15 12:09:27;;;;;;;1.63;0.80;;;20.70;66.30;;;;;;5050989;28;20490;-47
2021/05/15 12:11:59;;;;;;;2.47;1.10;;;20.70;67.00;;;;;;5051341;28;20510;-48
2021/05/15 12:14:25;;;;;;;2.13;1.10;;;20.80;66.30;;;;;;5051874;28;20482;-47
2021/05/15 12:16:52;;;;;;;6.90;1.10;;;20.40;65.70;;;;;;5052278;28;20518;-47
2021/05/15 12:19:21;;;;;;;3.63;1.03;;;20.60;66.20;;;;;;5051514;28;20436;-48
2021/05/15 12:21:59;;;;;;;2.33;1.40;;;20.80;66.90;;;;;;5051163;28;20436;-48
2021/05/15 12:24:32;;;;;;;2.70;1.50;;;20.70;67.40;;;;;;5050974;28;20445;-47
2021/05/15 12:27:13;;;;;;;3.70;1.23;;;20.90;67.90;;;;;;5051835;28;20812;-47
2021/05/15 12:29:40;;;;;;;3.10;1.63;;;20.90;68.20;;;;;;5050442;28;20437;-46
2021/05/15 12:32:08;;;;;;;2.60;1.30;;;21.20;68.60;;;;;;5051718;28;20469;-46
2021/05/15 12:34:36;;;;;;;2.20;1.37;;;21.20;68.80;;;;;;5051317;28;20484;-45
2021/05/15 12:37:13;;;;;;;1.57;1.00;;;20.60;68.50;;;;;;5051618;28;20433;-47
2021/05/15 12:39:39;;;;;;;1.90;0.73;;;20.50;60.70;;;;;;5050819;28;20437;-48
2021/05/15 12:42:06;;;;;;;2.53;1.03;;;20.50;59.30;;;;;;5051367;28;20965;-48
2021/05/15 12:44:40;;;;;;;1.60;1.10;;;20.70;59.60;;;;;;5051236;28;20449;-46
2021/05/15 12:47:06;;;;;;;2.27;0.90;;;20.70;59.00;;;;;;5051923;28;20428;-47